sensor_id;sensor_type;location;lat;lon;timestamp;temperature;humidity
9311;DHT22;4694;52.464;13.480;2022-09-03T00:00:23;13.10;99.90
9311;DHT22;4694;52.464;13.480;2022-09-03T00:02:55;13.10;99.90
9311;DHT22;4694;52.464;13.480;2022-09-03T00:05:28;13.00;99.90
9311;DHT22;4694;52.464;13.480;2022-09-03T00:08:02;13.00;99.90
9311;DHT22;4694;52.464;13.480;2022-09-03T00:10:37;13.00;99.90
9311;DHT22;4694;52.464;13.480;2022-09-03T00:13:08;13.10;99.90
9311;DHT22;4694;52.464;13.480;2022-09-03T00:15:35;13.10;99.90
9311;DHT22;4694;52.464;13.480;2022-09-03T00:18:07;13.30;99.90
9311;DHT22;4694;52.464;13.480;2022-09-03T00:20:40;13.20;99.90
9311;DHT22;4694;52.464;13.480;2022-09-03T00:23:10;13.10;99.90
9311;DHT22;4694;52.464;13.480;2022-09-03T00:25:43;13.10;99.90
9311;DHT22;4694;52.464;13.480;2022-09-03T00:28:13;13.00;99.90
9311;DHT22;4694;52.464;13.480;2022-09-03T00:30:41;13.00;99.90
9311;DHT22;4694;52.464;13.480;2022-09-03T00:33:14;12.90;99.90
9311;DHT22;4694;52.464;13.480;2022-09-03T00:35:48;12.90;99.90
9311;DHT22;4694;52.464;13.480;2022-09-03T00:38:18;12.90;99.90
9311;DHT22;4694;52.464;13.480;2022-09-03T00:41:03;12.90;99.90
9311;DHT22;4694;52.464;13.480;2022-09-03T00:43:45;12.80;99.90
9311;DHT22;4694;52.464;13.480;2022-09-03T00:46:23;12.80;99.90
9311;DHT22;4694;52.464;13.480;2022-09-03T00:49:10;12.80;99.90
9311;DHT22;4694;52.464;13.480;2022-09-03T00:51:43;12.90;99.90
9311;DHT22;4694;52.464;13.480;2022-09-03T00:54:21;12.70;99.90
9311;DHT22;4694;52.464;13.480;2022-09-03T00:57:06;12.70;99.90
9311;DHT22;4694;52.464;13.480;2022-09-03T00:59:42;12.80;99.90
9311;DHT22;4694;52.464;13.480;2022-09-03T01:02:17;12.80;99.90
9311;DHT22;4694;52.464;13.480;2022-09-03T01:04:54;12.80;99.90
9311;DHT22;4694;52.464;13.480;2022-09-03T01:07:34;12.70;99.90
9311;DHT22;4694;52.464;13.480;2022-09-03T01:10:11;12.60;99.90
9311;DHT22;4694;52.464;13.480;2022-09-03T01:12:47;12.70;99.90
9311;DHT22;4694;52.464;13.480;2022-09-03T01:15:20;12.60;99.90
9311;DHT22;4694;52.464;13.480;2022-09-03T01:18:05;12.70;99.90
9311;DHT22;4694;52.464;13.480;2022-09-03T01:20:40;12.70;99.90
9311;DHT22;4694;52.464;13.480;2022-09-03T01:23:27;12.60;99.90
9311;DHT22;4694;52.464;13.480;2022-09-03T01:26:09;12.60;99.90
9311;DHT22;4694;52.464;13.480;2022-09-03T01:28:43;12.50;99.90
9311;DHT22;4694;52.464;13.480;2022-09-03T01:31:20;12.40;99.90
9311;DHT22;4694;52.464;13.480;2022-09-03T01:33:53;12.50;99.90
9311;DHT22;4694;52.464;13.480;2022-09-03T01:36:26;12.40;99.90
9311;DHT22;4694;52.464;13.480;2022-09-03T01:38:59;12.40;99.90
9311;DHT22;4694;52.464;13.480;2022-09-03T01:41:39;12.30;99.90
9311;DHT22;4694;52.464;13.480;2022-09-03T01:44:33;12.30;99.90
9311;DHT22;4694;52.464;13.480;2022-09-03T01:47:12;12.20;99.90
9311;DHT22;4694;52.464;13.480;2022-09-03T01:49:46;12.10;99.90
9311;DHT22;4694;52.464;13.480;2022-09-03T01:52:18;12.10;99.90
9311;DHT22;4694;52.464;13.480;2022-09-03T01:55:00;12.20;99.90
9311;DHT22;4694;52.464;13.480;2022-09-03T01:57:40;12.20;99.90
9311;DHT22;4694;52.464;13.480;2022-09-03T02:00:13;12.10;99.90
9311;DHT22;4694;52.464;13.480;2022-09-03T02:02:42;12.10;99.90
9311;DHT22;4694;52.464;13.480;2022-09-03T02:05:13;12.10;99.90
9311;DHT22;4694;52.464;13.480;2022-09-03T02:07:43;12.10;99.90
9311;DHT22;4694;52.464;13.480;2022-09-03T02:10:12;12.10;99.90
9311;DHT22;4694;52.464;13.480;2022-09-03T02:12:40;12.00;99.90
9311;DHT22;4694;52.464;13.480;2022-09-03T02:15:13;12.00;99.90
9311;DHT22;4694;52.464;13.480;2022-09-03T02:17:42;12.00;99.90
9311;DHT22;4694;52.464;13.480;2022-09-03T02:20:11;12.00;99.90
9311;DHT22;4694;52.464;13.480;2022-09-03T02:22:39;11.90;99.90
9311;DHT22;4694;52.464;13.480;2022-09-03T02:25:06;12.10;99.90
9311;DHT22;4694;52.464;13.480;2022-09-03T02:27:35;12.10;99.90
9311;DHT22;4694;52.464;13.480;2022-09-03T02:30:03;12.00;99.90
9311;DHT22;4694;52.464;13.480;2022-09-03T02:32:31;11.90;99.90
9311;DHT22;4694;52.464;13.480;2022-09-03T02:34:58;12.00;99.90
9311;DHT22;4694;52.464;13.480;2022-09-03T02:37:25;11.90;99.90
9311;DHT22;4694;52.464;13.480;2022-09-03T02:39:51;11.80;99.90
9311;DHT22;4694;52.464;13.480;2022-09-03T02:42:19;11.90;99.90
9311;DHT22;4694;52.464;13.480;2022-09-03T02:44:49;12.00;99.90
9311;DHT22;4694;52.464;13.480;2022-09-03T02:47:18;11.70;99.90
9311;DHT22;4694;52.464;13.480;2022-09-03T02:49:47;11.70;99.90
9311;DHT22;4694;52.464;13.480;2022-09-03T02:52:14;11.60;99.90
9311;DHT22;4694;52.464;13.480;2022-09-03T02:54:42;11.50;99.90
9311;DHT22;4694;52.464;13.480;2022-09-03T02:57:13;11.40;99.90
9311;DHT22;4694;52.464;13.480;2022-09-03T02:59:41;11.60;99.90
9311;DHT22;4694;52.464;13.480;2022-09-03T03:02:10;11.60;99.90
9311;DHT22;4694;52.464;13.480;2022-09-03T03:04:38;11.40;99.90
9311;DHT22;4694;52.464;13.480;2022-09-03T03:07:06;11.30;99.90
9311;DHT22;4694;52.464;13.480;2022-09-03T03:09:33;11.30;99.90
9311;DHT22;4694;52.464;13.480;2022-09-03T03:12:00;11.40;99.90
9311;DHT22;4694;52.464;13.480;2022-09-03T03:14:26;11.40;99.90
9311;DHT22;4694;52.464;13.480;2022-09-03T03:16:53;11.30;99.90
9311;DHT22;4694;52.464;13.480;2022-09-03T03:19:19;11.30;99.90
9311;DHT22;4694;52.464;13.480;2022-09-03T03:21:46;11.30;99.90
9311;DHT22;4694;52.464;13.480;2022-09-03T03:24:14;11.20;99.90
9311;DHT22;4694;52.464;13.480;2022-09-03T03:26:40;11.20;99.90
9311;DHT22;4694;52.464;13.480;2022-09-03T03:29:07;11.10;99.90
9311;DHT22;4694;52.464;13.480;2022-09-03T03:31:39;11.20;99.90
9311;DHT22;4694;52.464;13.480;2022-09-03T03:34:05;11.20;99.90
9311;DHT22;4694;52.464;13.480;2022-09-03T03:36:32;11.20;99.90
9311;DHT22;4694;52.464;13.480;2022-09-03T03:39:00;11.10;99.90
9311;DHT22;4694;52.464;13.480;2022-09-03T03:41:30;11.20;99.90
9311;DHT22;4694;52.464;13.480;2022-09-03T03:43:59;11.20;99.90
9311;DHT22;4694;52.464;13.480;2022-09-03T03:46:28;11.10;99.90
9311;DHT22;4694;52.464;13.480;2022-09-03T03:48:55;11.20;99.90
9311;DHT22;4694;52.464;13.480;2022-09-03T03:51:22;11.30;99.90
9311;DHT22;4694;52.464;13.480;2022-09-03T03:53:48;11.20;99.90
9311;DHT22;4694;52.464;13.480;2022-09-03T03:56:18;11.20;99.90
9311;DHT22;4694;52.464;13.480;2022-09-03T03:58:46;11.20;99.90
9311;DHT22;4694;52.464;13.480;2022-09-03T04:01:15;11.10;99.90
9311;DHT22;4694;52.464;13.480;2022-09-03T04:03:42;11.20;99.90
9311;DHT22;4694;52.464;13.480;2022-09-03T04:06:10;11.20;99.90
9311;DHT22;4694;52.464;13.480;2022-09-03T04:08:39;11.10;99.90
9311;DHT22;4694;52.464;13.480;2022-09-03T04:11:07;11.10;99.90
9311;DHT22;4694;52.464;13.480;2022-09-03T04:13:35;11.10;99.90
9311;DHT22;4694;52.464;13.480;2022-09-03T04:16:05;11.10;99.90
9311;DHT22;4694;52.464;13.480;2022-09-03T04:18:33;11.10;99.90
9311;DHT22;4694;52.464;13.480;2022-09-03T04:21:01;11.20;99.90
9311;DHT22;4694;52.464;13.480;2022-09-03T04:23:30;11.20;99.90
9311;DHT22;4694;52.464;13.480;2022-09-03T04:25:57;11.20;99.90
9311;DHT22;4694;52.464;13.480;2022-09-03T04:28:23;11.20;99.90
9311;DHT22;4694;52.464;13.480;2022-09-03T04:30:50;11.30;99.90
9311;DHT22;4694;52.464;13.480;2022-09-03T04:33:18;11.40;99.90
9311;DHT22;4694;52.464;13.480;2022-09-03T04:35:45;11.40;99.90
9311;DHT22;4694;52.464;13.480;2022-09-03T04:38:11;11.50;99.90
9311;DHT22;4694;52.464;13.480;2022-09-03T04:40:38;11.60;99.90
9311;DHT22;4694;52.464;13.480;2022-09-03T04:43:05;11.60;99.90
9311;DHT22;4694;52.464;13.480;2022-09-03T04:45:31;11.60;99.90
9311;DHT22;4694;52.464;13.480;2022-09-03T04:47:59;11.50;99.90
9311;DHT22;4694;52.464;13.480;2022-09-03T04:50:28;11.60;99.90
9311;DHT22;4694;52.464;13.480;2022-09-03T04:52:58;11.70;99.90
9311;DHT22;4694;52.464;13.480;2022-09-03T04:55:25;11.70;99.90
9311;DHT22;4694;52.464;13.480;2022-09-03T04:57:52;11.70;99.90
9311;DHT22;4694;52.464;13.480;2022-09-03T05:00:19;11.70;99.90
9311;DHT22;4694;52.464;13.480;2022-09-03T05:02:46;11.80;99.90
9311;DHT22;4694;52.464;13.480;2022-09-03T05:05:14;11.80;99.90
9311;DHT22;4694;52.464;13.480;2022-09-03T05:07:42;11.90;99.90
9311;DHT22;4694;52.464;13.480;2022-09-03T05:10:11;11.90;99.90
9311;DHT22;4694;52.464;13.480;2022-09-03T05:12:40;12.10;99.90
9311;DHT22;4694;52.464;13.480;2022-09-03T05:15:07;12.00;99.90
9311;DHT22;4694;52.464;13.480;2022-09-03T05:17:34;12.00;99.90
9311;DHT22;4694;52.464;13.480;2022-09-03T05:20:03;12.20;99.90
9311;DHT22;4694;52.464;13.480;2022-09-03T05:22:30;12.40;99.90
9311;DHT22;4694;52.464;13.480;2022-09-03T05:24:57;12.90;99.90
9311;DHT22;4694;52.464;13.480;2022-09-03T05:27:24;12.90;99.90
9311;DHT22;4694;52.464;13.480;2022-09-03T05:29:51;13.10;99.90
9311;DHT22;4694;52.464;13.480;2022-09-03T05:32:17;13.30;99.90
9311;DHT22;4694;52.464;13.480;2022-09-03T05:34:44;13.60;99.90
9311;DHT22;4694;52.464;13.480;2022-09-03T05:37:10;13.60;99.90
9311;DHT22;4694;52.464;13.480;2022-09-03T05:39:37;13.50;99.90
9311;DHT22;4694;52.464;13.480;2022-09-03T05:42:05;13.70;99.90
9311;DHT22;4694;52.464;13.480;2022-09-03T05:44:31;13.80;99.90
9311;DHT22;4694;52.464;13.480;2022-09-03T05:46:59;14.00;99.90
9311;DHT22;4694;52.464;13.480;2022-09-03T05:49:25;14.00;99.90
9311;DHT22;4694;52.464;13.480;2022-09-03T05:51:52;14.00;99.90
9311;DHT22;4694;52.464;13.480;2022-09-03T05:54:18;14.30;99.90
9311;DHT22;4694;52.464;13.480;2022-09-03T05:56:45;14.30;99.90
9311;DHT22;4694;52.464;13.480;2022-09-03T05:59:13;14.60;99.90
9311;DHT22;4694;52.464;13.480;2022-09-03T06:01:42;14.60;99.90
9311;DHT22;4694;52.464;13.480;2022-09-03T06:04:11;14.60;99.90
9311;DHT22;4694;52.464;13.480;2022-09-03T06:06:39;14.40;99.90
9311;DHT22;4694;52.464;13.480;2022-09-03T06:09:07;14.20;99.90
9311;DHT22;4694;52.464;13.480;2022-09-03T06:11:36;14.40;99.90
9311;DHT22;4694;52.464;13.480;2022-09-03T06:14:04;14.10;99.90
9311;DHT22;4694;52.464;13.480;2022-09-03T06:16:36;14.30;99.90
9311;DHT22;4694;52.464;13.480;2022-09-03T06:19:03;14.20;99.90
9311;DHT22;4694;52.464;13.480;2022-09-03T06:21:34;14.20;99.90
9311;DHT22;4694;52.464;13.480;2022-09-03T06:24:01;14.10;99.90
9311;DHT22;4694;52.464;13.480;2022-09-03T06:26:28;14.20;99.90
9311;DHT22;4694;52.464;13.480;2022-09-03T06:28:55;14.30;99.90
9311;DHT22;4694;52.464;13.480;2022-09-03T06:31:23;14.30;99.90
9311;DHT22;4694;52.464;13.480;2022-09-03T06:33:51;14.30;99.90
9311;DHT22;4694;52.464;13.480;2022-09-03T06:36:19;14.30;99.90
9311;DHT22;4694;52.464;13.480;2022-09-03T06:38:50;14.40;99.90
9311;DHT22;4694;52.464;13.480;2022-09-03T06:41:18;14.40;99.90
9311;DHT22;4694;52.464;13.480;2022-09-03T06:43:50;14.60;99.90
9311;DHT22;4694;52.464;13.480;2022-09-03T06:46:19;14.50;99.90
9311;DHT22;4694;52.464;13.480;2022-09-03T06:48:46;14.60;99.90
9311;DHT22;4694;52.464;13.480;2022-09-03T06:51:16;14.60;99.90
9311;DHT22;4694;52.464;13.480;2022-09-03T06:53:44;14.70;99.90
9311;DHT22;4694;52.464;13.480;2022-09-03T06:56:12;14.70;99.90
9311;DHT22;4694;52.464;13.480;2022-09-03T06:58:41;14.80;99.90
9311;DHT22;4694;52.464;13.480;2022-09-03T07:01:09;15.00;99.90
9311;DHT22;4694;52.464;13.480;2022-09-03T07:03:38;15.10;99.90
9311;DHT22;4694;52.464;13.480;2022-09-03T07:06:06;15.20;99.90
9311;DHT22;4694;52.464;13.480;2022-09-03T07:08:35;15.30;99.90
9311;DHT22;4694;52.464;13.480;2022-09-03T07:11:04;15.40;99.90
9311;DHT22;4694;52.464;13.480;2022-09-03T07:13:33;15.50;99.90
9311;DHT22;4694;52.464;13.480;2022-09-03T07:16:01;15.70;99.90
9311;DHT22;4694;52.464;13.480;2022-09-03T07:18:29;15.80;99.90
9311;DHT22;4694;52.464;13.480;2022-09-03T07:20:59;15.90;99.90
9311;DHT22;4694;52.464;13.480;2022-09-03T07:23:26;15.90;99.90
9311;DHT22;4694;52.464;13.480;2022-09-03T07:25:55;16.00;99.90
9311;DHT22;4694;52.464;13.480;2022-09-03T07:28:23;16.10;99.90
9311;DHT22;4694;52.464;13.480;2022-09-03T07:30:50;16.10;99.90
9311;DHT22;4694;52.464;13.480;2022-09-03T07:33:16;16.30;99.90
9311;DHT22;4694;52.464;13.480;2022-09-03T07:35:43;16.40;99.90
9311;DHT22;4694;52.464;13.480;2022-09-03T07:38:10;16.50;99.90
9311;DHT22;4694;52.464;13.480;2022-09-03T07:40:38;16.60;99.90
9311;DHT22;4694;52.464;13.480;2022-09-03T07:43:06;16.60;99.90
9311;DHT22;4694;52.464;13.480;2022-09-03T07:45:32;16.70;99.90
9311;DHT22;4694;52.464;13.480;2022-09-03T07:47:59;16.90;99.90
9311;DHT22;4694;52.464;13.480;2022-09-03T07:50:26;17.00;99.90
9311;DHT22;4694;52.464;13.480;2022-09-03T07:52:55;17.10;99.90
9311;DHT22;4694;52.464;13.480;2022-09-03T07:55:23;17.20;99.90
9311;DHT22;4694;52.464;13.480;2022-09-03T07:57:54;17.10;99.90
9311;DHT22;4694;52.464;13.480;2022-09-03T08:00:22;17.10;99.90
9311;DHT22;4694;52.464;13.480;2022-09-03T08:02:50;17.10;99.90
9311;DHT22;4694;52.464;13.480;2022-09-03T08:05:17;17.30;99.90
9311;DHT22;4694;52.464;13.480;2022-09-03T08:07:44;17.50;99.90
9311;DHT22;4694;52.464;13.480;2022-09-03T08:10:11;17.80;99.90
9311;DHT22;4694;52.464;13.480;2022-09-03T08:12:38;17.80;99.90
9311;DHT22;4694;52.464;13.480;2022-09-03T08:15:06;18.10;99.90
9311;DHT22;4694;52.464;13.480;2022-09-03T08:17:34;18.20;99.90
9311;DHT22;4694;52.464;13.480;2022-09-03T08:20:01;18.50;99.90
9311;DHT22;4694;52.464;13.480;2022-09-03T08:22:28;19.10;99.90
9311;DHT22;4694;52.464;13.480;2022-09-03T08:24:54;19.80;99.90
9311;DHT22;4694;52.464;13.480;2022-09-03T08:27:22;20.30;99.90
9311;DHT22;4694;52.464;13.480;2022-09-03T08:29:49;20.80;99.90
9311;DHT22;4694;52.464;13.480;2022-09-03T08:32:16;21.20;99.90
9311;DHT22;4694;52.464;13.480;2022-09-03T08:34:44;21.50;99.90
9311;DHT22;4694;52.464;13.480;2022-09-03T08:44:43;23.00;95.20
9311;DHT22;4694;52.464;13.480;2022-09-03T08:47:14;22.90;95.60
9311;DHT22;4694;52.464;13.480;2022-09-03T08:49:46;23.00;95.00
9311;DHT22;4694;52.464;13.480;2022-09-03T08:52:23;23.00;95.50
9311;DHT22;4694;52.464;13.480;2022-09-03T08:54:56;23.70;95.50
9311;DHT22;4694;52.464;13.480;2022-09-03T08:59:54;24.50;87.80
9311;DHT22;4694;52.464;13.480;2022-09-03T09:04:58;24.80;85.60
9311;DHT22;4694;52.464;13.480;2022-09-03T09:07:33;24.90;86.20
9311;DHT22;4694;52.464;13.480;2022-09-03T09:10:08;25.70;84.80
9311;DHT22;4694;52.464;13.480;2022-09-03T09:12:40;25.70;82.40
9311;DHT22;4694;52.464;13.480;2022-09-03T09:15:13;25.90;79.10
9311;DHT22;4694;52.464;13.480;2022-09-03T09:17:57;26.00;77.80
9311;DHT22;4694;52.464;13.480;2022-09-03T09:20:34;26.00;78.70
9311;DHT22;4694;52.464;13.480;2022-09-03T09:23:03;26.10;78.50
9311;DHT22;4694;52.464;13.480;2022-09-03T09:28:11;25.80;74.10
9311;DHT22;4694;52.464;13.480;2022-09-03T09:30:39;25.90;75.10
9311;DHT22;4694;52.464;13.480;2022-09-03T09:33:07;26.30;75.70
9311;DHT22;4694;52.464;13.480;2022-09-03T09:35:35;26.20;74.70
9311;DHT22;4694;52.464;13.480;2022-09-03T09:38:06;26.50;73.90
9311;DHT22;4694;52.464;13.480;2022-09-03T09:40:35;26.80;71.40
9311;DHT22;4694;52.464;13.480;2022-09-03T09:43:09;27.00;72.00
9311;DHT22;4694;52.464;13.480;2022-09-03T09:45:37;26.90;70.60
9311;DHT22;4694;52.464;13.480;2022-09-03T09:48:09;27.70;70.50
9311;DHT22;4694;52.464;13.480;2022-09-03T09:50:37;28.70;68.60
9311;DHT22;4694;52.464;13.480;2022-09-03T09:53:06;28.80;65.00
9311;DHT22;4694;52.464;13.480;2022-09-03T09:55:48;29.30;66.80
9311;DHT22;4694;52.464;13.480;2022-09-03T10:00:54;30.20;86.80
9311;DHT22;4694;52.464;13.480;2022-09-03T10:03:21;29.20;75.40
9311;DHT22;4694;52.464;13.480;2022-09-03T10:06:00;29.10;72.90
9311;DHT22;4694;52.464;13.480;2022-09-03T10:08:48;29.20;73.50
9311;DHT22;4694;52.464;13.480;2022-09-03T10:11:16;29.60;71.30
9311;DHT22;4694;52.464;13.480;2022-09-03T10:13:46;30.20;84.40
9311;DHT22;4694;52.464;13.480;2022-09-03T10:18:50;29.40;76.70
9311;DHT22;4694;52.464;13.480;2022-09-03T10:21:26;28.00;69.50
9311;DHT22;4694;52.464;13.480;2022-09-03T10:24:00;29.00;68.80
9311;DHT22;4694;52.464;13.480;2022-09-03T10:26:29;28.90;71.50
9311;DHT22;4694;52.464;13.480;2022-09-03T10:28:59;27.90;70.40
9311;DHT22;4694;52.464;13.480;2022-09-03T10:31:41;26.80;59.60
9311;DHT22;4694;52.464;13.480;2022-09-03T10:34:15;25.70;64.10
9311;DHT22;4694;52.464;13.480;2022-09-03T10:36:48;25.40;71.10
9311;DHT22;4694;52.464;13.480;2022-09-03T10:39:22;24.90;75.40
9311;DHT22;4694;52.464;13.480;2022-09-03T10:42:01;24.40;68.00
9311;DHT22;4694;52.464;13.480;2022-09-03T10:47:25;24.30;70.20
9311;DHT22;4694;52.464;13.480;2022-09-03T10:50:00;24.40;70.90
9311;DHT22;4694;52.464;13.480;2022-09-03T10:52:39;24.10;69.30
9311;DHT22;4694;52.464;13.480;2022-09-03T10:55:18;24.50;65.80
9311;DHT22;4694;52.464;13.480;2022-09-03T10:57:50;24.70;63.10
9311;DHT22;4694;52.464;13.480;2022-09-03T11:00:19;24.60;62.60
9311;DHT22;4694;52.464;13.480;2022-09-03T11:03:18;24.80;62.30
9311;DHT22;4694;52.464;13.480;2022-09-03T11:05:57;24.50;62.80
9311;DHT22;4694;52.464;13.480;2022-09-03T11:08:31;24.50;63.40
9311;DHT22;4694;52.464;13.480;2022-09-03T11:11:09;24.60;63.20
9311;DHT22;4694;52.464;13.480;2022-09-03T11:13:40;24.80;63.70
9311;DHT22;4694;52.464;13.480;2022-09-03T11:16:14;26.10;61.90
9311;DHT22;4694;52.464;13.480;2022-09-03T11:18:48;26.80;64.30
9311;DHT22;4694;52.464;13.480;2022-09-03T11:21:19;26.70;72.00
9311;DHT22;4694;52.464;13.480;2022-09-03T11:23:51;26.30;70.20
9311;DHT22;4694;52.464;13.480;2022-09-03T11:26:20;25.90;68.90
9311;DHT22;4694;52.464;13.480;2022-09-03T11:28:53;25.60;66.80
9311;DHT22;4694;52.464;13.480;2022-09-03T11:31:25;25.00;64.50
9311;DHT22;4694;52.464;13.480;2022-09-03T11:33:59;25.00;60.90
9311;DHT22;4694;52.464;13.480;2022-09-03T11:36:32;25.60;60.30
9311;DHT22;4694;52.464;13.480;2022-09-03T11:39:11;26.70;58.90
9311;DHT22;4694;52.464;13.480;2022-09-03T11:44:17;27.00;81.00
9311;DHT22;4694;52.464;13.480;2022-09-03T11:46:53;27.60;78.00
9311;DHT22;4694;52.464;13.480;2022-09-03T11:49:27;27.50;74.30
9311;DHT22;4694;52.464;13.480;2022-09-03T11:51:57;27.40;75.90
9311;DHT22;4694;52.464;13.480;2022-09-03T11:54:26;27.50;76.20
9311;DHT22;4694;52.464;13.480;2022-09-03T11:57:06;27.10;76.50
9311;DHT22;4694;52.464;13.480;2022-09-03T11:59:36;27.10;69.00
9311;DHT22;4694;52.464;13.480;2022-09-03T12:02:08;28.10;68.70
9311;DHT22;4694;52.464;13.480;2022-09-03T12:04:43;28.60;78.70
9311;DHT22;4694;52.464;13.480;2022-09-03T12:07:24;30.30;53.20
9311;DHT22;4694;52.464;13.480;2022-09-03T12:10:17;30.80;60.20
9311;DHT22;4694;52.464;13.480;2022-09-03T12:13:03;30.40;63.00
9311;DHT22;4694;52.464;13.480;2022-09-03T12:18:20;27.40;52.00
9311;DHT22;4694;52.464;13.480;2022-09-03T12:21:01;27.00;53.70
9311;DHT22;4694;52.464;13.480;2022-09-03T12:23:29;26.60;54.10
9311;DHT22;4694;52.464;13.480;2022-09-03T12:25:59;27.50;54.70
9311;DHT22;4694;52.464;13.480;2022-09-03T12:28:28;28.40;53.10
9311;DHT22;4694;52.464;13.480;2022-09-03T12:31:06;28.50;52.40
9311;DHT22;4694;52.464;13.480;2022-09-03T12:33:50;27.60;51.70
9311;DHT22;4694;52.464;13.480;2022-09-03T12:36:19;26.50;53.00
9311;DHT22;4694;52.464;13.480;2022-09-03T12:38:46;26.10;53.80
9311;DHT22;4694;52.464;13.480;2022-09-03T12:41:23;25.90;53.90
9311;DHT22;4694;52.464;13.480;2022-09-03T12:43:52;26.70;54.50
9311;DHT22;4694;52.464;13.480;2022-09-03T12:46:23;27.20;53.60
9311;DHT22;4694;52.464;13.480;2022-09-03T12:48:57;26.70;53.50
9311;DHT22;4694;52.464;13.480;2022-09-03T12:51:31;26.50;53.90
9311;DHT22;4694;52.464;13.480;2022-09-03T12:53:58;26.50;54.00
9311;DHT22;4694;52.464;13.480;2022-09-03T12:56:28;26.20;54.20
9311;DHT22;4694;52.464;13.480;2022-09-03T12:59:00;26.10;54.90
9311;DHT22;4694;52.464;13.480;2022-09-03T13:01:33;25.70;55.10
9311;DHT22;4694;52.464;13.480;2022-09-03T13:04:04;25.20;55.80
9311;DHT22;4694;52.464;13.480;2022-09-03T13:06:34;25.10;56.10
9311;DHT22;4694;52.464;13.480;2022-09-03T13:09:07;25.20;56.30
9311;DHT22;4694;52.464;13.480;2022-09-03T13:11:36;25.20;56.40
9311;DHT22;4694;52.464;13.480;2022-09-03T13:14:05;25.30;56.10
9311;DHT22;4694;52.464;13.480;2022-09-03T13:17:01;24.70;56.70
9311;DHT22;4694;52.464;13.480;2022-09-03T13:19:38;24.40;57.00
9311;DHT22;4694;52.464;13.480;2022-09-03T13:22:10;24.10;58.20
9311;DHT22;4694;52.464;13.480;2022-09-03T13:24:55;24.00;57.70
9311;DHT22;4694;52.464;13.480;2022-09-03T13:27:31;23.80;57.90
9311;DHT22;4694;52.464;13.480;2022-09-03T13:30:04;23.70;58.20
9311;DHT22;4694;52.464;13.480;2022-09-03T13:32:40;23.60;58.70
9311;DHT22;4694;52.464;13.480;2022-09-03T13:35:11;23.70;59.40
9311;DHT22;4694;52.464;13.480;2022-09-03T13:37:44;24.00;59.20
9311;DHT22;4694;52.464;13.480;2022-09-03T13:40:18;24.10;59.10
9311;DHT22;4694;52.464;13.480;2022-09-03T13:42:53;24.20;59.10
9311;DHT22;4694;52.464;13.480;2022-09-03T13:45:27;24.20;58.10
9311;DHT22;4694;52.464;13.480;2022-09-03T13:47:59;24.10;58.50
9311;DHT22;4694;52.464;13.480;2022-09-03T13:50:46;24.00;58.80
9311;DHT22;4694;52.464;13.480;2022-09-03T13:53:17;23.60;58.70
9311;DHT22;4694;52.464;13.480;2022-09-03T13:55:47;23.50;59.10
9311;DHT22;4694;52.464;13.480;2022-09-03T13:58:23;23.20;58.80
9311;DHT22;4694;52.464;13.480;2022-09-03T14:01:01;24.70;58.70
9311;DHT22;4694;52.464;13.480;2022-09-03T14:03:35;25.90;56.70
9311;DHT22;4694;52.464;13.480;2022-09-03T14:06:12;25.00;55.60
9311;DHT22;4694;52.464;13.480;2022-09-03T14:08:56;24.90;57.20
9311;DHT22;4694;52.464;13.480;2022-09-03T14:11:28;25.50;56.90
9311;DHT22;4694;52.464;13.480;2022-09-03T14:14:07;26.40;56.20
9311;DHT22;4694;52.464;13.480;2022-09-03T14:16:43;25.60;55.50
9311;DHT22;4694;52.464;13.480;2022-09-03T14:19:17;25.10;55.80
9311;DHT22;4694;52.464;13.480;2022-09-03T14:21:52;24.80;57.00
9311;DHT22;4694;52.464;13.480;2022-09-03T14:24:23;24.60;57.60
9311;DHT22;4694;52.464;13.480;2022-09-03T14:26:55;23.90;57.50
9311;DHT22;4694;52.464;13.480;2022-09-03T14:29:27;23.60;58.70
9311;DHT22;4694;52.464;13.480;2022-09-03T14:35:27;25.70;57.20
9311;DHT22;4694;52.464;13.480;2022-09-03T14:41:02;27.80;54.70
9311;DHT22;4694;52.464;13.480;2022-09-03T14:43:59;27.60;57.20
9311;DHT22;4694;52.464;13.480;2022-09-03T14:46:37;26.50;58.50
9311;DHT22;4694;52.464;13.480;2022-09-03T21:31:57;17.90;92.10
9311;DHT22;4694;52.464;13.480;2022-09-03T21:34:28;18.20;92.60
9311;DHT22;4694;52.464;13.480;2022-09-03T21:36:58;18.00;93.00
9311;DHT22;4694;52.464;13.480;2022-09-03T21:39:31;17.90;93.00
9311;DHT22;4694;52.464;13.480;2022-09-03T21:42:03;17.90;93.10
9311;DHT22;4694;52.464;13.480;2022-09-03T21:44:42;17.90;93.30
9311;DHT22;4694;52.464;13.480;2022-09-03T21:47:13;17.80;93.70
9311;DHT22;4694;52.464;13.480;2022-09-03T21:49:57;17.80;93.80
9311;DHT22;4694;52.464;13.480;2022-09-03T21:52:32;17.80;93.60
9311;DHT22;4694;52.464;13.480;2022-09-03T21:55:11;17.70;93.80
9311;DHT22;4694;52.464;13.480;2022-09-03T21:57:48;17.70;93.80
9311;DHT22;4694;52.464;13.480;2022-09-03T22:00:17;17.70;94.10
9311;DHT22;4694;52.464;13.480;2022-09-03T22:02:45;17.70;94.20
9311;DHT22;4694;52.464;13.480;2022-09-03T22:05:12;17.60;94.50
9311;DHT22;4694;52.464;13.480;2022-09-03T22:07:53;17.50;94.60
9311;DHT22;4694;52.464;13.480;2022-09-03T22:10:25;17.50;94.90
9311;DHT22;4694;52.464;13.480;2022-09-03T22:12:57;17.40;95.00
9311;DHT22;4694;52.464;13.480;2022-09-03T22:15:28;17.40;94.90
9311;DHT22;4694;52.464;13.480;2022-09-03T22:17:58;17.30;95.10
9311;DHT22;4694;52.464;13.480;2022-09-03T22:20:26;17.30;95.20
9311;DHT22;4694;52.464;13.480;2022-09-03T22:22:57;17.20;95.40
9311;DHT22;4694;52.464;13.480;2022-09-03T22:25:32;17.20;95.60
9311;DHT22;4694;52.464;13.480;2022-09-03T22:28:05;17.20;96.00
9311;DHT22;4694;52.464;13.480;2022-09-03T22:30:42;17.20;96.60
9311;DHT22;4694;52.464;13.480;2022-09-03T22:33:17;17.20;96.80
9311;DHT22;4694;52.464;13.480;2022-09-03T22:36:10;17.10;96.90
9311;DHT22;4694;52.464;13.480;2022-09-03T22:39:00;17.10;97.20
9311;DHT22;4694;52.464;13.480;2022-09-03T22:41:39;17.00;98.40
9311;DHT22;4694;52.464;13.480;2022-09-03T22:44:17;17.00;97.90
9311;DHT22;4694;52.464;13.480;2022-09-03T22:46:52;17.00;98.10
9311;DHT22;4694;52.464;13.480;2022-09-03T22:49:30;17.00;97.80
9311;DHT22;4694;52.464;13.480;2022-09-03T22:52:08;16.90;98.90
9311;DHT22;4694;52.464;13.480;2022-09-03T22:54:45;16.90;99.90
9311;DHT22;4694;52.464;13.480;2022-09-03T22:57:16;16.80;99.90
9311;DHT22;4694;52.464;13.480;2022-09-03T22:59:46;16.80;99.90
9311;DHT22;4694;52.464;13.480;2022-09-03T23:02:21;16.70;99.70
9311;DHT22;4694;52.464;13.480;2022-09-03T23:04:56;16.80;99.90
9311;DHT22;4694;52.464;13.480;2022-09-03T23:07:29;16.80;99.90
9311;DHT22;4694;52.464;13.480;2022-09-03T23:10:04;16.60;99.20
9311;DHT22;4694;52.464;13.480;2022-09-03T23:12:35;16.70;99.90
9311;DHT22;4694;52.464;13.480;2022-09-03T23:15:03;16.60;99.90
9311;DHT22;4694;52.464;13.480;2022-09-03T23:17:33;16.70;99.90
9311;DHT22;4694;52.464;13.480;2022-09-03T23:20:05;16.60;99.90
9311;DHT22;4694;52.464;13.480;2022-09-03T23:22:37;16.60;99.90
9311;DHT22;4694;52.464;13.480;2022-09-03T23:25:13;16.50;99.90
9311;DHT22;4694;52.464;13.480;2022-09-03T23:27:47;16.40;99.90
9311;DHT22;4694;52.464;13.480;2022-09-03T23:30:16;16.40;99.90